sensor_id;sensor_type;location;lat;lon;timestamp;pressure;altitude;pressure_sealevel;temperature;humidity
7433;BME280;32233;49.500;7.764;2022-10-29T00:00:54;99160.84;;;10.96;100.00
7433;BME280;32233;49.500;7.764;2022-10-29T00:03:21;99161.78;;;10.88;100.00
7433;BME280;32233;49.500;7.764;2022-10-29T00:06:06;99160.88;;;10.81;100.00
7433;BME280;32233;49.500;7.764;2022-10-29T00:08:34;99155.56;;;10.81;100.00
7433;BME280;32233;49.500;7.764;2022-10-29T00:13:33;99166.31;;;10.58;100.00
7433;BME280;32233;49.500;7.764;2022-10-29T00:16:04;99162.03;;;10.57;100.00
7433;BME280;32233;49.500;7.764;2022-10-29T00:18:30;99159.53;;;10.56;100.00
7433;BME280;32233;49.500;7.764;2022-10-29T00:21:01;99155.63;;;10.66;100.00
7433;BME280;32233;49.500;7.764;2022-10-29T00:23:28;99150.69;;;10.78;100.00
7433;BME280;32233;49.500;7.764;2022-10-29T00:25:58;99153.47;;;10.91;100.00
7433;BME280;32233;49.500;7.764;2022-10-29T00:28:25;99149.25;;;10.97;100.00
7433;BME280;32233;49.500;7.764;2022-10-29T00:30:52;99135.31;;;10.88;100.00
7433;BME280;32233;49.500;7.764;2022-10-29T00:33:19;99149.00;;;10.92;100.00
7433;BME280;32233;49.500;7.764;2022-10-29T00:35:59;99152.00;;;10.89;100.00
7433;BME280;32233;49.500;7.764;2022-10-29T00:38:26;99149.31;;;10.68;100.00
7433;BME280;32233;49.500;7.764;2022-10-29T00:40:53;99156.91;;;10.56;100.00
7433;BME280;32233;49.500;7.764;2022-10-29T00:43:22;99165.56;;;10.50;100.00
7433;BME280;32233;49.500;7.764;2022-10-29T00:45:58;99170.38;;;10.61;100.00
7433;BME280;32233;49.500;7.764;2022-10-29T00:48:28;99170.28;;;10.69;100.00
7433;BME280;32233;49.500;7.764;2022-10-29T00:50:57;99167.31;;;10.57;100.00
7433;BME280;32233;49.500;7.764;2022-10-29T00:53:28;99166.84;;;10.54;100.00
7433;BME280;32233;49.500;7.764;2022-10-29T00:55:56;99169.94;;;10.57;100.00
7433;BME280;32233;49.500;7.764;2022-10-29T00:58:24;99172.78;;;10.41;100.00
7433;BME280;32233;49.500;7.764;2022-10-29T01:00:50;99163.84;;;10.42;100.00
7433;BME280;32233;49.500;7.764;2022-10-29T01:03:17;99170.78;;;10.58;100.00
7433;BME280;32233;49.500;7.764;2022-10-29T01:05:44;99160.81;;;10.60;100.00
7433;BME280;32233;49.500;7.764;2022-10-29T01:08:12;99160.34;;;10.56;100.00
7433;BME280;32233;49.500;7.764;2022-10-29T01:18:48;99177.88;;;10.43;100.00
7433;BME280;32233;49.500;7.764;2022-10-29T01:21:39;99171.69;;;10.50;100.00
7433;BME280;32233;49.500;7.764;2022-10-29T01:26:58;99163.47;;;10.30;100.00
7433;BME280;32233;49.500;7.764;2022-10-29T01:29:34;99160.00;;;10.45;100.00
7433;BME280;32233;49.500;7.764;2022-10-29T01:32:11;99156.19;;;10.47;100.00
7433;BME280;32233;49.500;7.764;2022-10-29T01:34:59;99157.09;;;10.39;100.00
7433;BME280;32233;49.500;7.764;2022-10-29T01:45:09;99151.03;;;10.16;100.00
7433;BME280;32233;49.500;7.764;2022-10-29T01:47:41;99149.03;;;10.18;100.00
7433;BME280;32233;49.500;7.764;2022-10-29T01:50:12;99150.50;;;10.21;100.00
7433;BME280;32233;49.500;7.764;2022-10-29T01:52:41;99141.56;;;10.22;100.00
7433;BME280;32233;49.500;7.764;2022-10-29T01:55:08;99136.47;;;10.20;100.00
7433;BME280;32233;49.500;7.764;2022-10-29T01:57:37;99127.25;;;10.16;100.00
7433;BME280;32233;49.500;7.764;2022-10-29T02:14:20;99134.91;;;10.11;100.00
7433;BME280;32233;49.500;7.764;2022-10-29T02:16:48;99138.75;;;10.08;100.00
7433;BME280;32233;49.500;7.764;2022-10-29T02:19:15;99139.28;;;10.04;100.00
7433;BME280;32233;49.500;7.764;2022-10-29T02:21:42;99138.00;;;10.00;100.00
7433;BME280;32233;49.500;7.764;2022-10-29T02:24:10;99137.81;;;10.01;100.00
7433;BME280;32233;49.500;7.764;2022-10-29T02:26:37;99143.50;;;10.13;100.00
7433;BME280;32233;49.500;7.764;2022-10-29T02:29:03;99143.66;;;10.11;100.00
7433;BME280;32233;49.500;7.764;2022-10-29T02:31:30;99145.38;;;10.19;100.00
7433;BME280;32233;49.500;7.764;2022-10-29T02:33:56;99140.63;;;10.00;100.00
7433;BME280;32233;49.500;7.764;2022-10-29T02:36:23;99139.09;;;10.05;100.00
7433;BME280;32233;49.500;7.764;2022-10-29T02:38:49;99132.03;;;10.21;100.00
7433;BME280;32233;49.500;7.764;2022-10-29T02:41:16;99134.66;;;10.35;100.00
7433;BME280;32233;49.500;7.764;2022-10-29T02:43:42;99129.50;;;10.42;100.00
7433;BME280;32233;49.500;7.764;2022-10-29T02:46:10;99135.94;;;10.54;100.00
7433;BME280;32233;49.500;7.764;2022-10-29T02:48:37;99126.00;;;10.56;100.00
7433;BME280;32233;49.500;7.764;2022-10-29T02:51:04;99121.09;;;10.53;100.00
7433;BME280;32233;49.500;7.764;2022-10-29T02:53:30;99117.44;;;10.54;100.00
7433;BME280;32233;49.500;7.764;2022-10-29T02:55:57;99114.81;;;10.54;100.00
7433;BME280;32233;49.500;7.764;2022-10-29T02:58:23;99119.28;;;10.54;100.00
7433;BME280;32233;49.500;7.764;2022-10-29T03:00:50;99118.97;;;10.49;100.00
7433;BME280;32233;49.500;7.764;2022-10-29T03:03:18;99119.94;;;10.41;100.00
7433;BME280;32233;49.500;7.764;2022-10-29T03:05:45;99113.63;;;10.42;100.00
7433;BME280;32233;49.500;7.764;2022-10-29T03:08:14;99115.06;;;10.45;100.00
7433;BME280;32233;49.500;7.764;2022-10-29T03:10:41;99117.00;;;10.36;100.00
7433;BME280;32233;49.500;7.764;2022-10-29T03:13:08;99114.81;;;10.39;100.00
7433;BME280;32233;49.500;7.764;2022-10-29T03:15:35;99121.19;;;10.30;100.00
7433;BME280;32233;49.500;7.764;2022-10-29T03:18:03;99118.97;;;10.19;100.00
7433;BME280;32233;49.500;7.764;2022-10-29T03:20:30;99124.44;;;10.17;100.00
7433;BME280;32233;49.500;7.764;2022-10-29T03:22:56;99117.00;;;10.36;100.00
7433;BME280;32233;49.500;7.764;2022-10-29T03:25:23;99111.25;;;10.32;100.00
7433;BME280;32233;49.500;7.764;2022-10-29T03:27:50;99103.97;;;10.34;100.00
7433;BME280;32233;49.500;7.764;2022-10-29T03:30:17;99097.03;;;10.48;100.00
7433;BME280;32233;49.500;7.764;2022-10-29T03:32:46;99102.97;;;10.50;100.00
7433;BME280;32233;49.500;7.764;2022-10-29T03:35:14;99096.50;;;10.38;100.00
7433;BME280;32233;49.500;7.764;2022-10-29T03:37:41;99093.09;;;10.44;100.00
7433;BME280;32233;49.500;7.764;2022-10-29T03:40:07;99102.97;;;10.50;100.00
7433;BME280;32233;49.500;7.764;2022-10-29T03:42:34;99097.72;;;10.72;100.00
7433;BME280;32233;49.500;7.764;2022-10-29T03:45:01;99098.06;;;10.69;100.00
7433;BME280;32233;49.500;7.764;2022-10-29T03:47:28;99094.59;;;10.83;100.00
7433;BME280;32233;49.500;7.764;2022-10-29T03:49:54;99090.81;;;10.92;100.00
7433;BME280;32233;49.500;7.764;2022-10-29T03:52:21;99082.44;;;10.88;100.00
7433;BME280;32233;49.500;7.764;2022-10-29T03:54:47;99089.44;;;10.96;100.00
7433;BME280;32233;49.500;7.764;2022-10-29T03:57:14;99089.63;;;10.95;100.00
7433;BME280;32233;49.500;7.764;2022-10-29T03:59:40;99093.91;;;10.96;100.00
7433;BME280;32233;49.500;7.764;2022-10-29T04:02:08;99090.69;;;10.79;100.00
7433;BME280;32233;49.500;7.764;2022-10-29T04:04:34;99094.44;;;10.70;100.00
7433;BME280;32233;49.500;7.764;2022-10-29T04:07:01;99093.78;;;10.82;100.00
7433;BME280;32233;49.500;7.764;2022-10-29T04:09:28;99091.59;;;10.71;100.00
7433;BME280;32233;49.500;7.764;2022-10-29T04:11:54;99090.78;;;10.71;100.00
7433;BME280;32233;49.500;7.764;2022-10-29T04:14:21;99095.50;;;10.75;100.00
7433;BME280;32233;49.500;7.764;2022-10-29T04:16:47;99093.78;;;10.82;100.00
7433;BME280;32233;49.500;7.764;2022-10-29T04:19:14;99090.25;;;10.97;100.00
7433;BME280;32233;49.500;7.764;2022-10-29T04:21:40;99088.50;;;11.04;100.00
7433;BME280;32233;49.500;7.764;2022-10-29T04:24:27;99083.06;;;10.90;100.00
7433;BME280;32233;49.500;7.764;2022-10-29T04:27:14;99094.59;;;11.04;100.00
7433;BME280;32233;49.500;7.764;2022-10-29T04:30:01;99091.97;;;11.04;100.00
7433;BME280;32233;49.500;7.764;2022-10-29T04:32:28;99093.91;;;10.96;100.00
7433;BME280;32233;49.500;7.764;2022-10-29T04:34:54;99086.41;;;10.99;100.00
7433;BME280;32233;49.500;7.764;2022-10-29T04:37:21;99083.81;;;11.06;100.00
7433;BME280;32233;49.500;7.764;2022-10-29T04:39:47;99078.72;;;11.04;100.00
7433;BME280;32233;49.500;7.764;2022-10-29T04:42:14;99079.66;;;11.18;100.00
7433;BME280;32233;49.500;7.764;2022-10-29T04:44:40;99087.59;;;11.18;100.00
7433;BME280;32233;49.500;7.764;2022-10-29T04:47:07;99097.31;;;11.11;100.00
7433;BME280;32233;49.500;7.764;2022-10-29T04:49:33;99093.91;;;11.17;100.00
7433;BME280;32233;49.500;7.764;2022-10-29T04:51:59;99097.50;;;11.31;100.00
7433;BME280;32233;49.500;7.764;2022-10-29T04:54:26;99101.16;;;11.30;100.00
7433;BME280;32233;49.500;7.764;2022-10-29T04:56:52;99095.84;;;11.30;100.00
7433;BME280;32233;49.500;7.764;2022-10-29T04:59:19;99099.66;;;11.21;100.00
7433;BME280;32233;49.500;7.764;2022-10-29T05:01:45;99093.78;;;11.04;100.00
7433;BME280;32233;49.500;7.764;2022-10-29T05:04:12;99090.19;;;11.11;100.00
7433;BME280;32233;49.500;7.764;2022-10-29T05:06:39;99076.84;;;11.20;100.00
7433;BME280;32233;49.500;7.764;2022-10-29T05:09:05;99069.66;;;11.13;100.00
7433;BME280;32233;49.500;7.764;2022-10-29T05:11:32;99075.50;;;11.09;100.00
7433;BME280;32233;49.500;7.764;2022-10-29T05:13:58;99074.81;;;11.22;100.00
7433;BME280;32233;49.500;7.764;2022-10-29T05:16:25;99070.47;;;11.14;100.00
7433;BME280;32233;49.500;7.764;2022-10-29T05:18:51;99076.78;;;11.13;100.00
7433;BME280;32233;49.500;7.764;2022-10-29T05:21:17;99073.31;;;11.12;100.00
7433;BME280;32233;49.500;7.764;2022-10-29T05:23:44;99079.78;;;11.10;100.00
7433;BME280;32233;49.500;7.764;2022-10-29T05:26:10;99076.16;;;11.11;100.00
7433;BME280;32233;49.500;7.764;2022-10-29T05:28:37;99078.00;;;11.10;100.00
7433;BME280;32233;49.500;7.764;2022-10-29T05:31:03;99076.41;;;11.16;100.00
7433;BME280;32233;49.500;7.764;2022-10-29T05:33:30;99074.19;;;11.20;100.00
7433;BME280;32233;49.500;7.764;2022-10-29T05:35:58;99071.56;;;11.20;100.00
7433;BME280;32233;49.500;7.764;2022-10-29T05:38:26;99071.88;;;11.31;100.00
7433;BME280;32233;49.500;7.764;2022-10-29T05:40:52;99072.09;;;11.36;100.00
7433;BME280;32233;49.500;7.764;2022-10-29T05:43:19;99082.56;;;11.45;100.00
7433;BME280;32233;49.500;7.764;2022-10-29T05:45:45;99073.34;;;11.40;100.00
7433;BME280;32233;49.500;7.764;2022-10-29T05:48:12;99083.03;;;11.55;100.00
7433;BME280;32233;49.500;7.764;2022-10-29T05:50:39;99072.84;;;11.52;100.00
7433;BME280;32233;49.500;7.764;2022-10-29T05:53:09;99076.31;;;11.52;100.00
7433;BME280;32233;49.500;7.764;2022-10-29T05:55:37;99072.84;;;11.52;100.00
7433;BME280;32233;49.500;7.764;2022-10-29T05:58:06;99075.13;;;11.33;100.00
7433;BME280;32233;49.500;7.764;2022-10-29T06:00:35;99062.41;;;11.44;100.00
7433;BME280;32233;49.500;7.764;2022-10-29T06:03:02;99072.25;;;11.56;100.00
7433;BME280;32233;49.500;7.764;2022-10-29T06:05:29;99075.09;;;11.55;100.00
7433;BME280;32233;49.500;7.764;2022-10-29T06:07:56;99069.13;;;11.46;100.00
7433;BME280;32233;49.500;7.764;2022-10-29T06:10:25;99071.44;;;11.56;100.00
7433;BME280;32233;49.500;7.764;2022-10-29T06:12:52;99079.41;;;11.56;100.00
7433;BME280;32233;49.500;7.764;2022-10-29T06:15:19;99071.69;;;11.61;100.00
7433;BME280;32233;49.500;7.764;2022-10-29T06:17:46;99070.81;;;11.54;100.00
7433;BME280;32233;49.500;7.764;2022-10-29T06:20:14;99068.44;;;11.65;100.00
7433;BME280;32233;49.500;7.764;2022-10-29T06:22:41;99072.28;;;11.63;100.00
7433;BME280;32233;49.500;7.764;2022-10-29T06:25:08;99081.09;;;11.63;100.00
7433;BME280;32233;49.500;7.764;2022-10-29T06:27:35;99078.97;;;11.59;100.00
7433;BME280;32233;49.500;7.764;2022-10-29T06:30:04;99080.59;;;11.53;100.00
7433;BME280;32233;49.500;7.764;2022-10-29T06:32:30;99087.81;;;11.66;100.00
7433;BME280;32233;49.500;7.764;2022-10-29T06:34:57;99090.22;;;11.61;100.00
7433;BME280;32233;49.500;7.764;2022-10-29T06:37:23;99085.59;;;11.70;100.00
7433;BME280;32233;49.500;7.764;2022-10-29T06:39:50;99086.25;;;11.72;100.00
7433;BME280;32233;49.500;7.764;2022-10-29T06:42:16;99087.66;;;11.74;100.00
7433;BME280;32233;49.500;7.764;2022-10-29T06:44:43;99082.69;;;11.86;100.00
7433;BME280;32233;49.500;7.764;2022-10-29T06:47:10;99082.06;;;11.84;100.00
7433;BME280;32233;49.500;7.764;2022-10-29T06:49:36;99082.06;;;11.84;100.00
7433;BME280;32233;49.500;7.764;2022-10-29T06:52:03;99086.19;;;11.93;100.00
7433;BME280;32233;49.500;7.764;2022-10-29T06:54:29;99088.66;;;11.95;100.00
7433;BME280;32233;49.500;7.764;2022-10-29T06:56:56;99093.78;;;12.03;100.00
7433;BME280;32233;49.500;7.764;2022-10-29T06:59:22;99083.09;;;12.18;100.00
7433;BME280;32233;49.500;7.764;2022-10-29T07:01:49;99086.59;;;12.31;100.00
7433;BME280;32233;49.500;7.764;2022-10-29T07:04:16;99094.59;;;12.38;100.00
7433;BME280;32233;49.500;7.764;2022-10-29T07:06:43;99090.63;;;12.69;100.00
7433;BME280;32233;49.500;7.764;2022-10-29T07:09:10;99090.56;;;12.49;100.00
7433;BME280;32233;49.500;7.764;2022-10-29T07:11:37;99089.13;;;12.46;100.00
7433;BME280;32233;49.500;7.764;2022-10-29T07:14:03;99094.84;;;12.50;100.00
7433;BME280;32233;49.500;7.764;2022-10-29T07:16:31;99091.41;;;12.56;100.00
7433;BME280;32233;49.500;7.764;2022-10-29T07:18:57;99094.06;;;12.56;100.00
7433;BME280;32233;49.500;7.764;2022-10-29T07:21:24;99094.25;;;12.54;100.00
7433;BME280;32233;49.500;7.764;2022-10-29T07:23:50;99101.19;;;12.55;100.00
7433;BME280;32233;49.500;7.764;2022-10-29T07:26:17;99095.34;;;12.73;100.00
7433;BME280;32233;49.500;7.764;2022-10-29T07:28:44;99096.38;;;12.79;100.00
7433;BME280;32233;49.500;7.764;2022-10-29T07:31:10;99088.81;;;12.76;100.00
7433;BME280;32233;49.500;7.764;2022-10-29T07:33:37;99096.41;;;12.92;100.00
7433;BME280;32233;49.500;7.764;2022-10-29T07:36:03;99094.22;;;13.02;100.00
7433;BME280;32233;49.500;7.764;2022-10-29T07:38:30;99095.44;;;13.13;100.00
7433;BME280;32233;49.500;7.764;2022-10-29T07:40:56;99096.88;;;13.16;100.00
7433;BME280;32233;49.500;7.764;2022-10-29T07:43:23;99095.72;;;13.31;100.00
7433;BME280;32233;49.500;7.764;2022-10-29T07:45:50;99100.41;;;13.43;100.00
7433;BME280;32233;49.500;7.764;2022-10-29T07:48:18;99100.41;;;13.69;100.00
7433;BME280;32233;49.500;7.764;2022-10-29T07:50:45;99101.84;;;13.72;100.00
7433;BME280;32233;49.500;7.764;2022-10-29T07:53:12;99106.13;;;13.86;100.00
7433;BME280;32233;49.500;7.764;2022-10-29T07:55:39;99101.00;;;13.98;100.00
7433;BME280;32233;49.500;7.764;2022-10-29T07:58:09;99092.81;;;14.06;100.00
7433;BME280;32233;49.500;7.764;2022-10-29T08:00:38;99096.91;;;14.02;100.00
7433;BME280;32233;49.500;7.764;2022-10-29T08:03:05;99099.97;;;13.99;100.00
7433;BME280;32233;49.500;7.764;2022-10-29T08:05:32;99103.03;;;13.96;100.00
7433;BME280;32233;49.500;7.764;2022-10-29T08:07:58;99102.63;;;14.05;100.00
7433;BME280;32233;49.500;7.764;2022-10-29T08:10:26;99103.84;;;14.09;100.00
7433;BME280;32233;49.500;7.764;2022-10-29T08:12:55;99110.09;;;14.35;100.00
7433;BME280;32233;49.500;7.764;2022-10-29T08:15:24;99115.81;;;14.45;100.00
7433;BME280;32233;49.500;7.764;2022-10-29T08:17:51;99111.84;;;14.74;100.00
7433;BME280;32233;49.500;7.764;2022-10-29T08:20:18;99113.25;;;14.77;100.00
7433;BME280;32233;49.500;7.764;2022-10-29T08:22:45;99110.16;;;14.80;100.00
7433;BME280;32233;49.500;7.764;2022-10-29T08:25:12;99112.44;;;14.76;100.00
7433;BME280;32233;49.500;7.764;2022-10-29T08:27:39;99112.31;;;14.58;100.00
7433;BME280;32233;49.500;7.764;2022-10-29T08:30:07;99120.06;;;14.66;100.00
7433;BME280;32233;49.500;7.764;2022-10-29T08:32:34;99119.44;;;14.71;100.00
7433;BME280;32233;49.500;7.764;2022-10-29T08:35:02;99108.91;;;15.21;100.00
7433;BME280;32233;49.500;7.764;2022-10-29T08:37:28;99108.16;;;15.70;100.00
7433;BME280;32233;49.500;7.764;2022-10-29T08:39:55;99108.38;;;15.94;100.00
7433;BME280;32233;49.500;7.764;2022-10-29T08:45:16;99112.00;;;15.99;99.24
7433;BME280;32233;49.500;7.764;2022-10-29T08:47:50;99103.66;;;16.14;96.66
7433;BME280;32233;49.500;7.764;2022-10-29T08:50:26;99105.56;;;16.07;97.61
7433;BME280;32233;49.500;7.764;2022-10-29T08:52:55;99104.31;;;16.09;96.43
7433;BME280;32233;49.500;7.764;2022-10-29T08:55:43;99097.13;;;16.47;94.67
7433;BME280;32233;49.500;7.764;2022-10-29T09:00:53;99099.94;;;16.70;93.88
7433;BME280;32233;49.500;7.764;2022-10-29T09:03:21;99098.28;;;16.88;92.01
7433;BME280;32233;49.500;7.764;2022-10-29T09:11:43;99089.66;;;17.69;85.60
7433;BME280;32233;49.500;7.764;2022-10-29T09:14:30;99091.31;;;17.94;83.83
7433;BME280;32233;49.500;7.764;2022-10-29T09:23:49;99075.50;;;19.13;72.16
7433;BME280;32233;49.500;7.764;2022-10-29T09:26:29;99069.94;;;19.32;72.08
7433;BME280;32233;49.500;7.764;2022-10-29T09:29:21;99075.13;;;19.38;71.33
7433;BME280;32233;49.500;7.764;2022-10-29T09:31:55;99072.03;;;19.29;71.44
7433;BME280;32233;49.500;7.764;2022-10-29T09:34:31;99073.84;;;19.41;70.76
7433;BME280;32233;49.500;7.764;2022-10-29T09:36:59;99060.28;;;19.02;74.91
7433;BME280;32233;49.500;7.764;2022-10-29T09:39:33;99050.31;;;18.97;73.58
7433;BME280;32233;49.500;7.764;2022-10-29T09:42:09;99052.31;;;19.19;75.80
7433;BME280;32233;49.500;7.764;2022-10-29T09:44:55;99054.47;;;19.05;76.18
7433;BME280;32233;49.500;7.764;2022-10-29T09:47:52;99046.44;;;19.39;72.95
7433;BME280;32233;49.500;7.764;2022-10-29T09:53:06;99042.59;;;20.46;67.67
7433;BME280;32233;49.500;7.764;2022-10-29T09:55:43;99034.19;;;21.45;58.61
7433;BME280;32233;49.500;7.764;2022-10-29T09:58:29;99035.47;;;22.28;56.82
7433;BME280;32233;49.500;7.764;2022-10-29T10:00:55;99030.06;;;23.11;54.18
7433;BME280;32233;49.500;7.764;2022-10-29T10:08:26;99033.81;;;23.20;52.04
7433;BME280;32233;49.500;7.764;2022-10-29T10:10:55;99037.50;;;22.68;58.22
7433;BME280;32233;49.500;7.764;2022-10-29T10:13:25;99029.28;;;22.22;58.94
7433;BME280;32233;49.500;7.764;2022-10-29T10:15:58;99028.53;;;21.89;60.92
7433;BME280;32233;49.500;7.764;2022-10-29T10:25:58;99014.28;;;20.82;63.58
7433;BME280;32233;49.500;7.764;2022-10-29T10:28:31;99009.00;;;21.24;59.10
7433;BME280;32233;49.500;7.764;2022-10-29T10:31:06;99003.78;;;21.45;62.96
7433;BME280;32233;49.500;7.764;2022-10-29T10:33:35;99001.88;;;21.40;63.82
7433;BME280;32233;49.500;7.764;2022-10-29T10:36:07;98993.84;;;21.45;62.72
7433;BME280;32233;49.500;7.764;2022-10-29T10:38:42;98999.56;;;21.59;63.40
7433;BME280;32233;49.500;7.764;2022-10-29T10:41:11;98989.84;;;21.53;63.98
7433;BME280;32233;49.500;7.764;2022-10-29T10:43:43;98992.84;;;21.24;64.30
7433;BME280;32233;49.500;7.764;2022-10-29T10:46:23;98989.50;;;21.07;64.31
7433;BME280;32233;49.500;7.764;2022-10-29T10:48:56;98986.53;;;21.09;64.51
7433;BME280;32233;49.500;7.764;2022-10-29T10:51:31;98982.09;;;20.92;66.02
7433;BME280;32233;49.500;7.764;2022-10-29T10:54:01;98983.00;;;21.03;66.10
7433;BME280;32233;49.500;7.764;2022-10-29T10:56:29;98966.72;;;21.15;58.89
7433;BME280;32233;49.500;7.764;2022-10-29T10:59:11;98974.31;;;22.13;61.34
7433;BME280;32233;49.500;7.764;2022-10-29T11:01:42;98955.31;;;22.70;57.48
7433;BME280;32233;49.500;7.764;2022-10-29T11:06:40;98966.69;;;23.13;55.55
7433;BME280;32233;49.500;7.764;2022-10-29T11:09:29;98951.84;;;23.31;46.79
7433;BME280;32233;49.500;7.764;2022-10-29T11:12:05;98955.59;;;23.30;51.03
7433;BME280;32233;49.500;7.764;2022-10-29T11:14:38;98954.00;;;23.04;53.91
7433;BME280;32233;49.500;7.764;2022-10-29T11:17:26;98955.84;;;22.78;47.16
7433;BME280;32233;49.500;7.764;2022-10-29T11:19:56;98952.06;;;22.73;52.10
7433;BME280;32233;49.500;7.764;2022-10-29T11:22:37;98960.69;;;22.60;55.38
7433;BME280;32233;49.500;7.764;2022-10-29T11:25:20;98949.69;;;22.97;43.38
7433;BME280;32233;49.500;7.764;2022-10-29T11:27:55;98937.00;;;24.14;46.13
7433;BME280;32233;49.500;7.764;2022-10-29T11:30:26;98935.75;;;24.51;47.65
7433;BME280;32233;49.500;7.764;2022-10-29T11:33:12;98935.53;;;24.42;47.16
7433;BME280;32233;49.500;7.764;2022-10-29T11:36:05;98926.94;;;24.30;39.85
7433;BME280;32233;49.500;7.764;2022-10-29T11:38:40;98924.81;;;25.00;39.89
7433;BME280;32233;49.500;7.764;2022-10-29T11:41:22;98915.28;;;25.08;40.82
7433;BME280;32233;49.500;7.764;2022-10-29T11:43:50;98920.41;;;25.62;44.89
7433;BME280;32233;49.500;7.764;2022-10-29T11:49:28;98913.59;;;25.17;46.06
7433;BME280;32233;49.500;7.764;2022-10-29T11:52:07;98905.66;;;25.26;43.69
7433;BME280;32233;49.500;7.764;2022-10-29T11:55:02;98901.81;;;25.32;42.72
7433;BME280;32233;49.500;7.764;2022-10-29T12:00:26;98905.59;;;25.02;44.15
7433;BME280;32233;49.500;7.764;2022-10-29T12:06:13;98891.88;;;25.27;38.08
7433;BME280;32233;49.500;7.764;2022-10-29T12:11:40;98895.69;;;24.92;42.40
7433;BME280;32233;49.500;7.764;2022-10-29T12:14:41;98890.44;;;24.71;43.50
7433;BME280;32233;49.500;7.764;2022-10-29T12:17:19;98882.84;;;24.39;43.91
7433;BME280;32233;49.500;7.764;2022-10-29T12:20:28;98876.91;;;24.42;42.38
7433;BME280;32233;49.500;7.764;2022-10-29T12:23:10;98875.56;;;24.35;46.05
7433;BME280;32233;49.500;7.764;2022-10-29T12:34:27;98865.59;;;23.86;48.94
7433;BME280;32233;49.500;7.764;2022-10-29T12:37:16;98859.72;;;23.73;47.77
7433;BME280;32233;49.500;7.764;2022-10-29T12:39:48;98863.06;;;23.40;53.26
7433;BME280;32233;49.500;7.764;2022-10-29T12:42:27;98860.44;;;23.09;55.96
7433;BME280;32233;49.500;7.764;2022-10-29T12:45:06;98850.75;;;22.98;53.48
7433;BME280;32233;49.500;7.764;2022-10-29T12:47:48;98853.16;;;22.89;57.23
7433;BME280;32233;49.500;7.764;2022-10-29T12:55:48;98852.31;;;22.02;60.25
7433;BME280;32233;49.500;7.764;2022-10-29T13:04:28;98836.91;;;21.82;60.50
7433;BME280;32233;49.500;7.764;2022-10-29T13:09:33;98833.38;;;21.71;63.01
7433;BME280;32233;49.500;7.764;2022-10-29T13:12:11;98836.91;;;21.72;63.37
7433;BME280;32233;49.500;7.764;2022-10-29T13:14:49;98832.25;;;21.52;63.16
7433;BME280;32233;49.500;7.764;2022-10-29T13:17:35;98835.47;;;21.54;63.85
7433;BME280;32233;49.500;7.764;2022-10-29T13:20:06;98831.84;;;21.28;65.36
7433;BME280;32233;49.500;7.764;2022-10-29T13:30:53;98845.63;;;20.94;66.87
7433;BME280;32233;49.500;7.764;2022-10-29T13:41:36;98837.84;;;21.35;63.68
7433;BME280;32233;49.500;7.764;2022-10-29T13:44:16;98835.16;;;21.45;66.06
7433;BME280;32233;49.500;7.764;2022-10-29T13:47:03;98831.25;;;21.73;62.32
7433;BME280;32233;49.500;7.764;2022-10-29T13:49:33;98832.25;;;21.52;64.58
7433;BME280;32233;49.500;7.764;2022-10-29T13:52:10;98831.84;;;21.28;66.47
7433;BME280;32233;49.500;7.764;2022-10-29T13:54:42;98823.69;;;21.13;67.55
7433;BME280;32233;49.500;7.764;2022-10-29T13:59:42;98830.13;;;21.07;66.66
7433;BME280;32233;49.500;7.764;2022-10-29T14:05:02;98814.91;;;20.80;70.35
7433;BME280;32233;49.500;7.764;2022-10-29T14:10:20;98818.50;;;20.53;70.65
7433;BME280;32233;49.500;7.764;2022-10-29T14:12:50;98820.00;;;20.82;67.99
7433;BME280;32233;49.500;7.764;2022-10-29T14:15:19;98828.47;;;20.63;74.02
7433;BME280;32233;49.500;7.764;2022-10-29T14:17:46;98812.03;;;20.55;75.33
7433;BME280;32233;49.500;7.764;2022-10-29T14:20:26;98817.03;;;20.46;74.56
7433;BME280;32233;49.500;7.764;2022-10-29T14:22:53;98823.38;;;20.62;78.40
7433;BME280;32233;49.500;7.764;2022-10-29T14:28:16;98826.03;;;20.02;80.47
7433;BME280;32233;49.500;7.764;2022-10-29T14:30:44;98810.78;;;20.08;83.38
7433;BME280;32233;49.500;7.764;2022-10-29T14:33:20;98816.03;;;19.93;84.57
7433;BME280;32233;49.500;7.764;2022-10-29T14:35:47;98820.91;;;19.74;84.91
7433;BME280;32233;49.500;7.764;2022-10-29T14:38:15;98814.31;;;19.82;86.51
7433;BME280;32233;49.500;7.764;2022-10-29T14:40:43;98821.38;;;19.66;86.96
7433;BME280;32233;49.500;7.764;2022-10-29T14:43:20;98815.28;;;19.75;85.68
7433;BME280;32233;49.500;7.764;2022-10-29T14:45:49;98824.81;;;19.61;87.93
7433;BME280;32233;49.500;7.764;2022-10-29T14:48:16;98816.38;;;19.52;87.70
7433;BME280;32233;49.500;7.764;2022-10-29T14:50:49;98822.47;;;19.48;88.28
7433;BME280;32233;49.500;7.764;2022-10-29T14:53:32;98822.81;;;19.35;88.78
7433;BME280;32233;49.500;7.764;2022-10-29T14:56:04;98821.75;;;19.14;90.24
7433;BME280;32233;49.500;7.764;2022-10-29T14:58:34;98824.81;;;19.00;91.12
7433;BME280;32233;49.500;7.764;2022-10-29T15:01:06;98824.84;;;18.84;92.67
7433;BME280;32233;49.500;7.764;2022-10-29T15:03:37;98821.34;;;18.83;92.57
7433;BME280;32233;49.500;7.764;2022-10-29T15:06:16;98821.66;;;18.87;93.13
7433;BME280;32233;49.500;7.764;2022-10-29T15:08:44;98818.66;;;18.66;94.04
7433;BME280;32233;49.500;7.764;2022-10-29T15:16:57;98822.31;;;18.43;94.74
7433;BME280;32233;49.500;7.764;2022-10-29T15:19:24;98821.81;;;18.29;95.76
7433;BME280;32233;49.500;7.764;2022-10-29T15:21:51;98822.44;;;18.20;96.74
7433;BME280;32233;49.500;7.764;2022-10-29T15:24:21;98822.84;;;18.28;96.86
7433;BME280;32233;49.500;7.764;2022-10-29T15:26:53;98823.03;;;18.22;96.59
7433;BME280;32233;49.500;7.764;2022-10-29T15:29:25;98812.53;;;18.20;97.52
7433;BME280;32233;49.500;7.764;2022-10-29T15:31:59;98812.53;;;18.03;98.48
7433;BME280;32233;49.500;7.764;2022-10-29T15:34:35;98808.09;;;18.09;96.83
7433;BME280;32233;49.500;7.764;2022-10-29T15:39:57;98812.75;;;17.85;98.60
7433;BME280;32233;49.500;7.764;2022-10-29T15:42:28;98815.28;;;17.51;100.00
7433;BME280;32233;49.500;7.764;2022-10-29T15:47:35;98812.25;;;17.60;94.33